sensor_id;sensor_type;location;lat;lon;timestamp;pressure;altitude;pressure_sealevel;temperature;humidity
61898;BME280;47850;50.274;18.908;2023-05-09T00:00:38;99102.48;;;4.74;72.97
61898;BME280;47850;50.274;18.908;2023-05-09T00:03:13;99100.08;;;4.73;73.05
61898;BME280;47850;50.274;18.908;2023-05-09T00:05:41;99101.00;;;4.72;73.19
61898;BME280;47850;50.274;18.908;2023-05-09T00:08:08;99104.28;;;4.70;73.40
61898;BME280;47850;50.274;18.908;2023-05-09T00:10:36;99104.15;;;4.67;73.27
61898;BME280;47850;50.274;18.908;2023-05-09T00:13:03;99102.61;;;4.64;73.35
61898;BME280;47850;50.274;18.908;2023-05-09T00:15:32;99103.27;;;4.60;73.35
61898;BME280;47850;50.274;18.908;2023-05-09T00:17:59;99102.02;;;4.57;73.64
61898;BME280;47850;50.274;18.908;2023-05-09T00:20:27;99101.11;;;4.53;73.91
61898;BME280;47850;50.274;18.908;2023-05-09T00:22:55;99096.77;;;4.52;74.15
61898;BME280;47850;50.274;18.908;2023-05-09T00:25:23;99097.57;;;4.50;74.36
61898;BME280;47850;50.274;18.908;2023-05-09T00:27:50;99093.39;;;4.48;74.77
61898;BME280;47850;50.274;18.908;2023-05-09T00:30:18;99091.81;;;4.45;74.61
61898;BME280;47850;50.274;18.908;2023-05-09T00:32:46;99088.61;;;4.44;74.89
61898;BME280;47850;50.274;18.908;2023-05-09T00:35:13;99086.27;;;4.42;74.90
61898;BME280;47850;50.274;18.908;2023-05-09T00:37:41;99085.81;;;4.40;74.86
61898;BME280;47850;50.274;18.908;2023-05-09T00:40:09;99083.75;;;4.39;75.22
61898;BME280;47850;50.274;18.908;2023-05-09T00:42:37;99083.20;;;4.38;75.44
61898;BME280;47850;50.274;18.908;2023-05-09T00:45:05;99079.45;;;4.36;75.34
61898;BME280;47850;50.274;18.908;2023-05-09T00:47:33;99080.14;;;4.35;75.58
61898;BME280;47850;50.274;18.908;2023-05-09T00:50:01;99075.13;;;4.34;75.42
61898;BME280;47850;50.274;18.908;2023-05-09T00:52:28;99075.22;;;4.33;75.44
61898;BME280;47850;50.274;18.908;2023-05-09T00:54:57;99070.55;;;4.30;75.71
61898;BME280;47850;50.274;18.908;2023-05-09T00:57:24;99070.63;;;4.27;75.67
61898;BME280;47850;50.274;18.908;2023-05-09T00:59:52;99066.82;;;4.24;75.78
61898;BME280;47850;50.274;18.908;2023-05-09T01:02:20;99062.20;;;4.21;75.88
61898;BME280;47850;50.274;18.908;2023-05-09T01:04:48;99061.79;;;4.18;75.94
61898;BME280;47850;50.274;18.908;2023-05-09T01:07:29;99062.20;;;4.15;76.09
61898;BME280;47850;50.274;18.908;2023-05-09T01:10:04;99061.42;;;4.13;76.14
61898;BME280;47850;50.274;18.908;2023-05-09T01:15:12;99061.46;;;4.07;76.59
61898;BME280;47850;50.274;18.908;2023-05-09T01:28:15;99056.50;;;3.91;77.05
61898;BME280;47850;50.274;18.908;2023-05-09T01:30:46;99054.23;;;3.87;77.43
61898;BME280;47850;50.274;18.908;2023-05-09T01:33:18;99050.75;;;3.83;77.51
61898;BME280;47850;50.274;18.908;2023-05-09T01:35:47;99052.40;;;3.81;77.45
61898;BME280;47850;50.274;18.908;2023-05-09T01:38:16;99046.57;;;3.80;77.73
61898;BME280;47850;50.274;18.908;2023-05-09T01:40:46;99048.44;;;3.79;77.74
61898;BME280;47850;50.274;18.908;2023-05-09T01:43:15;99046.31;;;3.77;77.82
61898;BME280;47850;50.274;18.908;2023-05-09T01:45:44;99047.01;;;3.76;77.77
61898;BME280;47850;50.274;18.908;2023-05-09T01:48:13;99042.73;;;3.74;78.01
61898;BME280;47850;50.274;18.908;2023-05-09T01:50:41;99039.34;;;3.73;77.88
61898;BME280;47850;50.274;18.908;2023-05-09T01:53:10;99038.69;;;3.71;78.01
61898;BME280;47850;50.274;18.908;2023-05-09T01:55:39;99039.40;;;3.72;78.09
61898;BME280;47850;50.274;18.908;2023-05-09T01:58:08;99039.13;;;3.71;78.29
61898;BME280;47850;50.274;18.908;2023-05-09T02:00:36;99040.56;;;3.70;78.31
61898;BME280;47850;50.274;18.908;2023-05-09T02:03:03;99039.37;;;3.68;78.43
61898;BME280;47850;50.274;18.908;2023-05-09T02:05:32;99038.89;;;3.64;78.29
61898;BME280;47850;50.274;18.908;2023-05-09T02:08:00;99036.64;;;3.61;78.43
61898;BME280;47850;50.274;18.908;2023-05-09T02:10:28;99036.33;;;3.57;78.62
61898;BME280;47850;50.274;18.908;2023-05-09T02:12:57;99034.40;;;3.56;78.78
61898;BME280;47850;50.274;18.908;2023-05-09T02:15:25;99031.20;;;3.53;78.94
61898;BME280;47850;50.274;18.908;2023-05-09T02:17:53;99030.84;;;3.50;78.74
61898;BME280;47850;50.274;18.908;2023-05-09T02:20:20;99027.89;;;3.47;78.95
61898;BME280;47850;50.274;18.908;2023-05-09T02:22:48;99029.16;;;3.45;78.95
61898;BME280;47850;50.274;18.908;2023-05-09T02:25:16;99032.08;;;3.41;79.15
61898;BME280;47850;50.274;18.908;2023-05-09T02:27:45;99033.81;;;3.40;79.46
61898;BME280;47850;50.274;18.908;2023-05-09T02:30:14;99028.76;;;3.37;79.42
61898;BME280;47850;50.274;18.908;2023-05-09T02:32:44;99030.13;;;3.35;79.66
61898;BME280;47850;50.274;18.908;2023-05-09T02:35:13;99024.07;;;3.34;79.69
61898;BME280;47850;50.274;18.908;2023-05-09T02:37:43;99021.80;;;3.32;79.90
61898;BME280;47850;50.274;18.908;2023-05-09T02:40:11;99019.19;;;3.32;80.06
61898;BME280;47850;50.274;18.908;2023-05-09T02:42:39;99021.52;;;3.32;80.23
61898;BME280;47850;50.274;18.908;2023-05-09T02:45:07;99016.88;;;3.32;80.34
61898;BME280;47850;50.274;18.908;2023-05-09T02:47:37;99022.59;;;3.31;80.24
61898;BME280;47850;50.274;18.908;2023-05-09T02:50:05;99019.28;;;3.30;80.25
61898;BME280;47850;50.274;18.908;2023-05-09T02:52:33;99019.55;;;3.30;80.53
61898;BME280;47850;50.274;18.908;2023-05-09T02:55:00;99022.56;;;3.29;80.57
61898;BME280;47850;50.274;18.908;2023-05-09T02:57:28;99021.11;;;3.27;80.50
61898;BME280;47850;50.274;18.908;2023-05-09T02:59:56;99024.17;;;3.24;80.55
61898;BME280;47850;50.274;18.908;2023-05-09T03:02:23;99027.39;;;3.24;80.97
61898;BME280;47850;50.274;18.908;2023-05-09T03:04:52;99030.97;;;3.21;81.09
61898;BME280;47850;50.274;18.908;2023-05-09T03:07:20;99025.61;;;3.20;81.11
61898;BME280;47850;50.274;18.908;2023-05-09T03:09:47;99025.23;;;3.20;81.21
61898;BME280;47850;50.274;18.908;2023-05-09T03:12:15;99024.21;;;3.20;81.30
61898;BME280;47850;50.274;18.908;2023-05-09T03:14:43;99020.60;;;3.19;81.32
61898;BME280;47850;50.274;18.908;2023-05-09T03:17:10;99020.53;;;3.18;81.31
61898;BME280;47850;50.274;18.908;2023-05-09T03:19:38;99022.64;;;3.18;81.80
61898;BME280;47850;50.274;18.908;2023-05-09T03:22:06;99024.64;;;3.19;81.79
61898;BME280;47850;50.274;18.908;2023-05-09T03:24:33;99024.44;;;3.21;81.96
61898;BME280;47850;50.274;18.908;2023-05-09T03:27:01;99022.35;;;3.21;81.87
61898;BME280;47850;50.274;18.908;2023-05-09T03:29:28;99022.14;;;3.22;81.97
61898;BME280;47850;50.274;18.908;2023-05-09T03:31:56;99023.98;;;3.23;82.10
61898;BME280;47850;50.274;18.908;2023-05-09T03:34:24;99020.95;;;3.26;82.08
61898;BME280;47850;50.274;18.908;2023-05-09T03:36:52;99017.88;;;3.27;82.13
61898;BME280;47850;50.274;18.908;2023-05-09T03:39:20;99016.89;;;3.28;82.06
61898;BME280;47850;50.274;18.908;2023-05-09T03:41:47;99018.27;;;3.30;81.90
61898;BME280;47850;50.274;18.908;2023-05-09T03:44:15;99018.83;;;3.32;82.10
61898;BME280;47850;50.274;18.908;2023-05-09T03:46:43;99019.01;;;3.34;82.11
61898;BME280;47850;50.274;18.908;2023-05-09T03:49:10;99018.38;;;3.37;82.12
61898;BME280;47850;50.274;18.908;2023-05-09T03:51:38;99016.60;;;3.40;82.29
61898;BME280;47850;50.274;18.908;2023-05-09T03:54:06;99020.14;;;3.44;82.17
61898;BME280;47850;50.274;18.908;2023-05-09T03:56:33;99024.89;;;3.48;82.19
61898;BME280;47850;50.274;18.908;2023-05-09T03:59:01;99026.77;;;3.52;82.13
61898;BME280;47850;50.274;18.908;2023-05-09T04:01:29;99025.08;;;3.55;82.02
61898;BME280;47850;50.274;18.908;2023-05-09T04:03:57;99025.36;;;3.60;81.91
61898;BME280;47850;50.274;18.908;2023-05-09T04:06:25;99024.80;;;3.64;81.86
61898;BME280;47850;50.274;18.908;2023-05-09T04:08:52;99025.43;;;3.66;81.97
61898;BME280;47850;50.274;18.908;2023-05-09T04:11:20;99026.11;;;3.70;82.03
61898;BME280;47850;50.274;18.908;2023-05-09T04:13:48;99022.96;;;3.74;81.88
61898;BME280;47850;50.274;18.908;2023-05-09T04:16:15;99026.30;;;3.79;81.96
61898;BME280;47850;50.274;18.908;2023-05-09T04:18:43;99022.80;;;3.84;81.81
61898;BME280;47850;50.274;18.908;2023-05-09T04:21:11;99023.98;;;3.89;81.88
61898;BME280;47850;50.274;18.908;2023-05-09T04:23:38;99028.14;;;3.94;81.79
61898;BME280;47850;50.274;18.908;2023-05-09T04:26:06;99029.07;;;4.00;81.74
61898;BME280;47850;50.274;18.908;2023-05-09T04:28:36;99032.52;;;4.07;81.68
61898;BME280;47850;50.274;18.908;2023-05-09T04:31:03;99033.83;;;4.13;81.64
61898;BME280;47850;50.274;18.908;2023-05-09T04:33:31;99033.46;;;4.20;81.26
61898;BME280;47850;50.274;18.908;2023-05-09T04:35:59;99028.27;;;4.25;81.18
61898;BME280;47850;50.274;18.908;2023-05-09T04:38:26;99023.84;;;4.30;81.29
61898;BME280;47850;50.274;18.908;2023-05-09T04:40:54;99021.49;;;4.34;81.10
61898;BME280;47850;50.274;18.908;2023-05-09T04:43:22;99017.44;;;4.40;81.19
61898;BME280;47850;50.274;18.908;2023-05-09T04:45:52;99019.02;;;4.48;80.91
61898;BME280;47850;50.274;18.908;2023-05-09T04:48:20;99016.91;;;4.56;80.78
61898;BME280;47850;50.274;18.908;2023-05-09T04:50:48;99013.46;;;4.65;80.88
61898;BME280;47850;50.274;18.908;2023-05-09T04:53:16;99011.52;;;4.73;80.63
61898;BME280;47850;50.274;18.908;2023-05-09T04:55:43;99008.65;;;4.81;80.49
61898;BME280;47850;50.274;18.908;2023-05-09T04:58:11;99007.90;;;4.89;80.34
61898;BME280;47850;50.274;18.908;2023-05-09T05:00:39;99007.98;;;4.97;79.96
61898;BME280;47850;50.274;18.908;2023-05-09T05:03:06;99011.11;;;5.04;79.85
61898;BME280;47850;50.274;18.908;2023-05-09T05:05:34;99006.48;;;5.10;79.83
61898;BME280;47850;50.274;18.908;2023-05-09T05:08:02;99008.20;;;5.18;79.57
61898;BME280;47850;50.274;18.908;2023-05-09T05:10:29;99007.65;;;5.25;79.29
61898;BME280;47850;50.274;18.908;2023-05-09T05:12:57;99008.33;;;5.33;79.31
61898;BME280;47850;50.274;18.908;2023-05-09T05:15:25;99005.88;;;5.41;78.99
61898;BME280;47850;50.274;18.908;2023-05-09T05:17:55;99003.74;;;5.49;78.83
61898;BME280;47850;50.274;18.908;2023-05-09T05:20:23;99004.45;;;5.57;78.54
61898;BME280;47850;50.274;18.908;2023-05-09T05:22:50;99005.25;;;5.66;78.35
61898;BME280;47850;50.274;18.908;2023-05-09T05:25:18;99003.70;;;5.75;78.08
61898;BME280;47850;50.274;18.908;2023-05-09T05:27:47;99002.00;;;5.85;77.82
61898;BME280;47850;50.274;18.908;2023-05-09T05:30:15;99003.53;;;5.95;77.65
61898;BME280;47850;50.274;18.908;2023-05-09T05:32:43;99001.14;;;6.04;77.25
61898;BME280;47850;50.274;18.908;2023-05-09T05:35:10;99003.85;;;6.12;76.63
61898;BME280;47850;50.274;18.908;2023-05-09T05:37:38;98999.20;;;6.19;76.48
61898;BME280;47850;50.274;18.908;2023-05-09T05:40:06;98998.71;;;6.27;76.42
61898;BME280;47850;50.274;18.908;2023-05-09T05:42:35;98997.30;;;6.32;76.07
61898;BME280;47850;50.274;18.908;2023-05-09T05:45:03;98999.31;;;6.39;75.84
61898;BME280;47850;50.274;18.908;2023-05-09T05:47:31;98993.19;;;6.46;75.66
61898;BME280;47850;50.274;18.908;2023-05-09T05:50:00;98993.88;;;6.53;75.42
61898;BME280;47850;50.274;18.908;2023-05-09T05:52:28;98993.55;;;6.61;75.09
61898;BME280;47850;50.274;18.908;2023-05-09T05:54:56;98997.08;;;6.70;74.80
61898;BME280;47850;50.274;18.908;2023-05-09T05:57:24;98994.85;;;6.77;74.38
61898;BME280;47850;50.274;18.908;2023-05-09T05:59:52;98994.55;;;6.85;74.37
61898;BME280;47850;50.274;18.908;2023-05-09T06:02:19;98989.86;;;6.93;74.15
61898;BME280;47850;50.274;18.908;2023-05-09T06:04:47;98989.52;;;7.00;73.85
61898;BME280;47850;50.274;18.908;2023-05-09T06:07:15;98988.91;;;7.08;73.12
61898;BME280;47850;50.274;18.908;2023-05-09T06:09:42;98985.75;;;7.11;72.57
61898;BME280;47850;50.274;18.908;2023-05-09T06:12:10;98987.55;;;7.13;72.67
61898;BME280;47850;50.274;18.908;2023-05-09T06:14:38;98983.07;;;7.18;72.64
61898;BME280;47850;50.274;18.908;2023-05-09T06:17:06;98982.45;;;7.24;72.57
61898;BME280;47850;50.274;18.908;2023-05-09T06:19:34;98983.23;;;7.29;72.23
61898;BME280;47850;50.274;18.908;2023-05-09T06:22:01;98985.13;;;7.36;72.19
61898;BME280;47850;50.274;18.908;2023-05-09T06:24:30;98986.44;;;7.42;72.00
61898;BME280;47850;50.274;18.908;2023-05-09T06:26:57;98981.20;;;7.47;71.07
61898;BME280;47850;50.274;18.908;2023-05-09T06:29:25;98977.01;;;7.54;70.62
61898;BME280;47850;50.274;18.908;2023-05-09T06:31:53;98973.54;;;7.62;70.88
61898;BME280;47850;50.274;18.908;2023-05-09T06:34:21;98974.20;;;7.70;70.62
61898;BME280;47850;50.274;18.908;2023-05-09T06:36:48;98971.81;;;7.78;70.35
61898;BME280;47850;50.274;18.908;2023-05-09T06:39:16;98972.55;;;7.89;70.33
61898;BME280;47850;50.274;18.908;2023-05-09T06:41:44;98971.34;;;8.01;70.13
61898;BME280;47850;50.274;18.908;2023-05-09T06:44:11;98964.69;;;8.12;69.49
61898;BME280;47850;50.274;18.908;2023-05-09T06:46:39;98961.88;;;8.23;68.84
61898;BME280;47850;50.274;18.908;2023-05-09T06:49:07;98957.51;;;8.33;68.30
61898;BME280;47850;50.274;18.908;2023-05-09T06:51:34;98953.62;;;8.42;66.95
61898;BME280;47850;50.274;18.908;2023-05-09T06:54:02;98947.47;;;8.52;64.92
61898;BME280;47850;50.274;18.908;2023-05-09T06:56:29;98948.52;;;8.62;63.49
61898;BME280;47850;50.274;18.908;2023-05-09T06:58:57;98949.80;;;8.70;63.02
61898;BME280;47850;50.274;18.908;2023-05-09T07:01:25;98944.02;;;8.78;63.04
61898;BME280;47850;50.274;18.908;2023-05-09T07:03:53;98939.19;;;8.86;61.88
61898;BME280;47850;50.274;18.908;2023-05-09T07:06:21;98940.06;;;8.95;61.20
61898;BME280;47850;50.274;18.908;2023-05-09T07:08:48;98937.03;;;9.03;61.64
61898;BME280;47850;50.274;18.908;2023-05-09T07:11:16;98935.83;;;9.09;60.27
61898;BME280;47850;50.274;18.908;2023-05-09T07:13:43;98921.95;;;9.14;59.64
61898;BME280;47850;50.274;18.908;2023-05-09T07:16:11;98929.05;;;9.20;59.25
61898;BME280;47850;50.274;18.908;2023-05-09T07:18:39;98930.54;;;9.27;58.70
61898;BME280;47850;50.274;18.908;2023-05-09T07:21:07;98916.17;;;9.35;57.59
61898;BME280;47850;50.274;18.908;2023-05-09T07:23:34;98923.88;;;9.40;57.01
61898;BME280;47850;50.274;18.908;2023-05-09T07:26:02;98919.38;;;9.44;56.64
61898;BME280;47850;50.274;18.908;2023-05-09T07:28:29;98919.91;;;9.48;55.69
61898;BME280;47850;50.274;18.908;2023-05-09T07:30:57;98927.61;;;9.52;56.18
61898;BME280;47850;50.274;18.908;2023-05-09T07:33:25;98922.41;;;9.57;56.26
61898;BME280;47850;50.274;18.908;2023-05-09T07:35:53;98924.30;;;9.62;56.02
61898;BME280;47850;50.274;18.908;2023-05-09T07:38:20;98922.79;;;9.69;55.27
61898;BME280;47850;50.274;18.908;2023-05-09T07:40:48;98922.23;;;9.76;54.60
61898;BME280;47850;50.274;18.908;2023-05-09T07:43:16;98919.98;;;9.82;55.05
61898;BME280;47850;50.274;18.908;2023-05-09T07:45:43;98918.67;;;9.89;54.28
61898;BME280;47850;50.274;18.908;2023-05-09T07:48:11;98915.63;;;9.95;53.84
61898;BME280;47850;50.274;18.908;2023-05-09T07:50:39;98919.04;;;10.00;53.53
61898;BME280;47850;50.274;18.908;2023-05-09T07:53:06;98918.25;;;10.08;53.85
61898;BME280;47850;50.274;18.908;2023-05-09T07:55:34;98913.97;;;10.17;53.80
61898;BME280;47850;50.274;18.908;2023-05-09T07:58:02;98912.34;;;10.27;54.61
61898;BME280;47850;50.274;18.908;2023-05-09T08:00:30;98910.95;;;10.35;54.81
61898;BME280;47850;50.274;18.908;2023-05-09T08:02:58;98910.65;;;10.41;53.29
61898;BME280;47850;50.274;18.908;2023-05-09T08:05:25;98913.18;;;10.46;54.37
61898;BME280;47850;50.274;18.908;2023-05-09T08:07:53;98912.26;;;10.55;54.27
61898;BME280;47850;50.274;18.908;2023-05-09T08:10:21;98902.76;;;10.64;52.99
61898;BME280;47850;50.274;18.908;2023-05-09T08:12:49;98906.47;;;10.73;52.57
61898;BME280;47850;50.274;18.908;2023-05-09T08:15:17;98901.92;;;10.85;53.46
61898;BME280;47850;50.274;18.908;2023-05-09T08:17:45;98899.77;;;10.94;52.94
61898;BME280;47850;50.274;18.908;2023-05-09T08:20:13;98900.72;;;11.01;52.28
61898;BME280;47850;50.274;18.908;2023-05-09T08:22:40;98896.58;;;11.09;51.83
61898;BME280;47850;50.274;18.908;2023-05-09T08:25:08;98900.54;;;11.13;50.77
61898;BME280;47850;50.274;18.908;2023-05-09T08:27:36;98900.05;;;11.16;50.67
61898;BME280;47850;50.274;18.908;2023-05-09T08:30:04;98889.70;;;11.19;50.99
61898;BME280;47850;50.274;18.908;2023-05-09T08:32:32;98888.63;;;11.26;51.57
61898;BME280;47850;50.274;18.908;2023-05-09T08:35:00;98888.23;;;11.35;50.53
61898;BME280;47850;50.274;18.908;2023-05-09T08:37:28;98890.95;;;11.48;50.22
61898;BME280;47850;50.274;18.908;2023-05-09T08:39:56;98891.41;;;11.57;49.93
61898;BME280;47850;50.274;18.908;2023-05-09T08:42:24;98890.88;;;11.66;50.01
61898;BME280;47850;50.274;18.908;2023-05-09T08:44:52;98880.92;;;11.76;49.16
61898;BME280;47850;50.274;18.908;2023-05-09T08:47:20;98878.55;;;11.84;49.73
61898;BME280;47850;50.274;18.908;2023-05-09T08:49:49;98879.40;;;11.93;48.74
61898;BME280;47850;50.274;18.908;2023-05-09T08:52:17;98875.84;;;11.99;48.36
61898;BME280;47850;50.274;18.908;2023-05-09T08:54:45;98870.63;;;12.07;48.77
61898;BME280;47850;50.274;18.908;2023-05-09T08:57:13;98871.50;;;12.18;48.91
61898;BME280;47850;50.274;18.908;2023-05-09T08:59:42;98865.55;;;12.26;48.63
61898;BME280;47850;50.274;18.908;2023-05-09T09:02:11;98868.55;;;12.33;49.47
61898;BME280;47850;50.274;18.908;2023-05-09T09:04:41;98868.95;;;12.44;49.46
61898;BME280;47850;50.274;18.908;2023-05-09T09:07:09;98871.11;;;12.56;49.24
61898;BME280;47850;50.274;18.908;2023-05-09T09:09:37;98876.46;;;12.65;48.50
61898;BME280;47850;50.274;18.908;2023-05-09T09:12:10;98875.97;;;12.72;48.32
61898;BME280;47850;50.274;18.908;2023-05-09T09:14:40;98873.77;;;12.77;47.49
61898;BME280;47850;50.274;18.908;2023-05-09T09:17:09;98875.15;;;12.78;48.23
61898;BME280;47850;50.274;18.908;2023-05-09T09:19:38;98875.39;;;12.90;47.28
61898;BME280;47850;50.274;18.908;2023-05-09T09:22:07;98873.73;;;12.96;46.83
61898;BME280;47850;50.274;18.908;2023-05-09T09:24:39;98867.30;;;13.00;46.80
61898;BME280;47850;50.274;18.908;2023-05-09T09:27:07;98869.70;;;13.08;46.56
61898;BME280;47850;50.274;18.908;2023-05-09T09:29:34;98862.10;;;13.12;46.38
61898;BME280;47850;50.274;18.908;2023-05-09T09:32:04;98866.45;;;13.16;46.60
61898;BME280;47850;50.274;18.908;2023-05-09T09:34:32;98867.92;;;13.20;46.82
61898;BME280;47850;50.274;18.908;2023-05-09T09:36:59;98861.54;;;13.38;47.17
61898;BME280;47850;50.274;18.908;2023-05-09T09:39:27;98864.63;;;13.56;46.47
61898;BME280;47850;50.274;18.908;2023-05-09T09:41:55;98864.63;;;13.68;45.03
61898;BME280;47850;50.274;18.908;2023-05-09T09:44:24;98862.30;;;13.77;44.99
61898;BME280;47850;50.274;18.908;2023-05-09T09:46:53;98857.97;;;13.93;46.05
61898;BME280;47850;50.274;18.908;2023-05-09T09:49:22;98857.40;;;14.16;44.61
61898;BME280;47850;50.274;18.908;2023-05-09T09:51:50;98860.23;;;14.40;43.86
61898;BME280;47850;50.274;18.908;2023-05-09T09:54:19;98855.63;;;14.49;42.29
61898;BME280;47850;50.274;18.908;2023-05-09T09:56:48;98853.77;;;14.55;42.78
61898;BME280;47850;50.274;18.908;2023-05-09T09:59:16;98857.02;;;14.71;42.25
61898;BME280;47850;50.274;18.908;2023-05-09T10:01:54;98848.08;;;14.79;41.66
61898;BME280;47850;50.274;18.908;2023-05-09T10:04:22;98845.90;;;14.79;41.68
61898;BME280;47850;50.274;18.908;2023-05-09T10:06:51;98846.67;;;14.87;41.58
61898;BME280;47850;50.274;18.908;2023-05-09T10:09:20;98840.88;;;14.93;41.47
61898;BME280;47850;50.274;18.908;2023-05-09T10:11:49;98841.37;;;15.00;40.99
61898;BME280;47850;50.274;18.908;2023-05-09T10:14:18;98838.42;;;15.07;40.91
61898;BME280;47850;50.274;18.908;2023-05-09T10:16:47;98835.38;;;15.11;40.76
61898;BME280;47850;50.274;18.908;2023-05-09T10:19:19;98832.76;;;15.26;41.67
61898;BME280;47850;50.274;18.908;2023-05-09T10:21:51;98830.27;;;15.44;41.36
61898;BME280;47850;50.274;18.908;2023-05-09T10:26:58;98818.41;;;15.51;38.47
61898;BME280;47850;50.274;18.908;2023-05-09T10:29:33;98832.86;;;15.51;38.43
61898;BME280;47850;50.274;18.908;2023-05-09T10:32:04;98828.46;;;15.66;39.18
61898;BME280;47850;50.274;18.908;2023-05-09T10:34:36;98822.45;;;15.89;39.60
61898;BME280;47850;50.274;18.908;2023-05-09T10:37:07;98821.38;;;16.17;39.87
61898;BME280;47850;50.274;18.908;2023-05-09T10:39:35;98819.02;;;16.41;38.79
61898;BME280;47850;50.274;18.908;2023-05-09T10:42:03;98817.62;;;16.53;38.21
61898;BME280;47850;50.274;18.908;2023-05-09T10:44:31;98815.89;;;16.70;37.38
61898;BME280;47850;50.274;18.908;2023-05-09T10:46:59;98810.38;;;16.78;37.47
61898;BME280;47850;50.274;18.908;2023-05-09T10:49:28;98810.40;;;16.81;37.17
61898;BME280;47850;50.274;18.908;2023-05-09T10:51:56;98805.03;;;17.03;37.75
61898;BME280;47850;50.274;18.908;2023-05-09T10:54:27;98801.75;;;17.20;37.09
61898;BME280;47850;50.274;18.908;2023-05-09T10:56:56;98808.27;;;17.19;36.67
61898;BME280;47850;50.274;18.908;2023-05-09T11:02:02;98798.20;;;17.38;35.65
61898;BME280;47850;50.274;18.908;2023-05-09T11:04:31;98796.66;;;17.20;36.00
61898;BME280;47850;50.274;18.908;2023-05-09T11:06:59;98791.43;;;17.16;35.48
61898;BME280;47850;50.274;18.908;2023-05-09T11:09:28;98790.73;;;17.25;35.60
61898;BME280;47850;50.274;18.908;2023-05-09T11:12:01;98789.04;;;17.40;34.79
61898;BME280;47850;50.274;18.908;2023-05-09T11:17:05;98784.16;;;17.66;33.61
61898;BME280;47850;50.274;18.908;2023-05-09T11:22:01;98783.02;;;17.98;34.32
61898;BME280;47850;50.274;18.908;2023-05-09T11:24:31;98780.27;;;17.88;33.89
61898;BME280;47850;50.274;18.908;2023-05-09T11:26:59;98774.98;;;17.70;33.46
61898;BME280;47850;50.274;18.908;2023-05-09T11:29:27;98773.67;;;17.63;33.34
61898;BME280;47850;50.274;18.908;2023-05-09T11:32:05;98768.33;;;17.69;33.00
61898;BME280;47850;50.274;18.908;2023-05-09T11:34:37;98764.52;;;17.71;32.00
61898;BME280;47850;50.274;18.908;2023-05-09T11:37:41;98759.47;;;17.77;32.40
61898;BME280;47850;50.274;18.908;2023-05-09T11:39:59;98750.66;;;18.04;32.04
61898;BME280;47850;50.274;18.908;2023-05-09T11:42:30;98752.22;;;18.22;31.87
61898;BME280;47850;50.274;18.908;2023-05-09T11:44:58;98746.87;;;18.31;31.61
61898;BME280;47850;50.274;18.908;2023-05-09T11:47:26;98747.48;;;18.34;32.27
61898;BME280;47850;50.274;18.908;2023-05-09T11:49:55;98742.14;;;18.26;31.72
61898;BME280;47850;50.274;18.908;2023-05-09T11:52:23;98736.61;;;18.39;31.47
61898;BME280;47850;50.274;18.908;2023-05-09T11:54:52;98732.47;;;18.64;31.73
61898;BME280;47850;50.274;18.908;2023-05-09T11:57:20;98734.93;;;18.58;31.64
61898;BME280;47850;50.274;18.908;2023-05-09T11:59:47;98731.13;;;18.34;31.61
61898;BME280;47850;50.274;18.908;2023-05-09T12:02:15;98728.85;;;18.14;31.65
61898;BME280;47850;50.274;18.908;2023-05-09T12:04:43;98727.36;;;18.05;31.97
61898;BME280;47850;50.274;18.908;2023-05-09T12:07:11;98722.90;;;18.49;32.25
61898;BME280;47850;50.274;18.908;2023-05-09T12:09:39;98719.39;;;18.97;30.97
61898;BME280;47850;50.274;18.908;2023-05-09T12:12:11;98723.30;;;19.30;31.25
61898;BME280;47850;50.274;18.908;2023-05-09T12:14:40;98724.95;;;19.66;30.89
61898;BME280;47850;50.274;18.908;2023-05-09T12:17:08;98719.30;;;19.92;30.32
61898;BME280;47850;50.274;18.908;2023-05-09T12:19:36;98716.77;;;19.94;30.11
61898;BME280;47850;50.274;18.908;2023-05-09T12:22:04;98707.94;;;19.74;29.88
61898;BME280;47850;50.274;18.908;2023-05-09T12:24:35;98710.29;;;19.51;30.40
61898;BME280;47850;50.274;18.908;2023-05-09T12:27:03;98703.65;;;19.22;30.63
61898;BME280;47850;50.274;18.908;2023-05-09T12:29:31;98701.55;;;19.01;30.98
61898;BME280;47850;50.274;18.908;2023-05-09T12:31:59;98701.65;;;18.84;31.03
61898;BME280;47850;50.274;18.908;2023-05-09T12:34:27;98693.45;;;19.18;31.22
61898;BME280;47850;50.274;18.908;2023-05-09T12:36:55;98696.20;;;19.75;30.69
61898;BME280;47850;50.274;18.908;2023-05-09T12:39:24;98689.70;;;20.22;29.16
61898;BME280;47850;50.274;18.908;2023-05-09T12:41:53;98685.64;;;20.40;29.60
61898;BME280;47850;50.274;18.908;2023-05-09T12:44:21;98689.22;;;20.52;30.15
61898;BME280;47850;50.274;18.908;2023-05-09T12:46:59;98686.42;;;20.41;29.02
61898;BME280;47850;50.274;18.908;2023-05-09T12:49:28;98687.21;;;20.19;29.83
61898;BME280;47850;50.274;18.908;2023-05-09T12:51:56;98686.86;;;19.93;29.86
61898;BME280;47850;50.274;18.908;2023-05-09T12:54:26;98685.66;;;19.53;30.14
61898;BME280;47850;50.274;18.908;2023-05-09T12:56:55;98684.58;;;19.32;30.48
61898;BME280;47850;50.274;18.908;2023-05-09T12:59:24;98677.97;;;19.73;30.30
61898;BME280;47850;50.274;18.908;2023-05-09T13:01:53;98665.50;;;20.27;29.68
61898;BME280;47850;50.274;18.908;2023-05-09T13:04:21;98657.06;;;20.86;29.04
61898;BME280;47850;50.274;18.908;2023-05-09T13:06:53;98658.33;;;21.18;28.82
61898;BME280;47850;50.274;18.908;2023-05-09T13:09:22;98653.88;;;21.17;28.24
61898;BME280;47850;50.274;18.908;2023-05-09T13:11:51;98654.39;;;20.75;28.40
61898;BME280;47850;50.274;18.908;2023-05-09T13:14:19;98657.95;;;20.69;29.05
61898;BME280;47850;50.274;18.908;2023-05-09T13:16:48;98645.70;;;21.38;28.86
61898;BME280;47850;50.274;18.908;2023-05-09T13:19:17;98643.13;;;22.01;27.93
61898;BME280;47850;50.274;18.908;2023-05-09T13:21:45;98646.23;;;21.83;27.92
61898;BME280;47850;50.274;18.908;2023-05-09T13:24:12;98642.20;;;21.36;27.61